KFWA/FWA METAR and TAF weather

Enter ICAO airport designator
Station Type Date Time Source
KFWA METAR 2020/03/29 14:54 UTC NOAA

KFWA 291454Z 24028G42KT 10SM SCT033 BKN042 OVC070 12/06 A2962 RMK AO2 PK WND 25045/1432 SLP028 T01220056 53010


Station Type Date Time Source
KFWA Decoded METAR 2020/03/29 14:54 UTC NOAA

FORT WAYNE INTERNATIONAL, IN, United States (KFWA) 41-00N 85-12W 248M
Mar 29, 2020 - 10:54 AM EDT / 2020.03.29 1454 UTC
Wind: from the WSW (240 degrees) at 32 MPH (28 KT) gusting to 48 MPH (42 KT):0
Visibility: 10 mile(s):0
Sky conditions: overcast
Temperature: 54.0 F (12.2 C)
Dew Point: 42.1 F (5.6 C)
Relative Humidity: 64%
Pressure (altimeter): 29.62 in. Hg (1003 hPa)
Pressure tendency: 0.03 inches (1.0 hPa) higher than three hours ago
ob: KFWA 291454Z 24028G42KT 10SM SCT033 BKN042 OVC070 12/06 A2962 RMK AO2 PK WND 25045/1432 SLP028 T01220056 53010
cycle: 15

Station Type Date Time Source
KFWA TAF 2020/03/29 15:34 UTC NOAA

TAF
AMD KFWA 291431Z 2915/3012 24023G37KT P6SM BKN040
FM291600 23025G38KT P6SM BKN030
FM300000 26015G27KT P6SM BKN025

Example: see airport list